MSC Magnifica — 3FLO4 — position and weather

sailwx.info

Track history (hours):
 
Tides and Currents Weather Stations Pressure Air Temp Water Temp Dewpoint Dewpoint Depression Visibility Wind Speed Wind Dir Waves Ship Positions

MSC Magnifica

Last reported at 2017-Apr-28 22:35 UTC. Time now 2017-Apr-29 13:24 UTC.
Position N 43°05' E 008°33'.

Length 293 m; draft 7.8 m.

Type: Ship. MMSI: 352594000.

Date/timePositionNaut miles runAvg speedWind from/ knotsBaromVisibWave heightAir tempDewpointWater temp
2017-Apr-28 22:35N 43°05' E 008°33'112.8
2017-Apr-28 22:30N 43°06' E 008°34'812.8
2017-Apr-28 21:52N 43°13' E 008°36'512.9
2017-Apr-28 21:27N 43°18' E 008°38'813.0
2017-Apr-28 20:52N 43°26' E 008°40'513.1
2017-Apr-28 20:30N 43°31' E 008°42'713.1
2017-Apr-28 20:00N 43°37' E 008°44'713.0
2017-Apr-28 19:30N 43°43' E 008°46'613.1
2017-Apr-28 19:01N 43°50' E 008°48'613.0
2017-Apr-28 18:30N 43°56' E 008°50'612.8
2017-Apr-28 18:00N 44°02' E 008°52'612.7
2017-Apr-28 17:30N 44°08' E 008°54'612.9
2017-Apr-28 17:00N 44°15' E 008°56'612.6
2017-Apr-28 16:30N 44°21' E 008°57'4 8.0
2017-Apr-28 16:00N 44°25' E 008°55'0 0.2
2017-Apr-28 15:23N 44°25' E 008°55'0 0.0
2017-Apr-28 14:53N 44°25' E 008°55'0 0.0
2017-Apr-28 13:53N 44°25' E 008°55'0 0.0
2017-Apr-28 13:23N 44°25' E 008°55'0 0.0
2017-Apr-28 12:56N 44°25' E 008°55'0 0.0
2017-Apr-28 12:26N 44°25' E 008°55'0 0.0
2017-Apr-28 11:56N 44°25' E 008°55'0 0.0
2017-Apr-28 11:23N 44°25' E 008°55'0 0.0
2017-Apr-28 10:56N 44°25' E 008°55'0 0.0
2017-Apr-28 10:29N 44°25' E 008°55'0 0.0
2017-Apr-28 09:59N 44°25' E 008°55'0 0.0
2017-Apr-28 09:29N 44°25' E 008°55'0 0.0
2017-Apr-28 08:59N 44°25' E 008°55'0 0.0
2017-Apr-28 08:29N 44°25' E 008°55'0 0.0
2017-Apr-28 07:59N 44°25' E 008°55'0 0.0
2017-Apr-28 07:29N 44°25' E 008°55'0 0.0
2017-Apr-28 06:59N 44°25' E 008°55'0 0.0
2017-Apr-28 06:29N 44°25' E 008°55'1 1.4
2017-Apr-28 06:00N 44°24' E 008°55'3 6.4
2017-Apr-28 05:30N 44°22' E 008°58'816.1
2017-Apr-28 05:00N 44°14' E 008°53'714.4
2017-Apr-28 04:30N 44°08' E 008°47'714.0
2017-Apr-28 04:01N 44°03' E 008°42'714.3
2017-Apr-28 03:31N 43°57' E 008°36'714.4
2017-Apr-28 03:00N 43°51' E 008°30'714.2
2017-Apr-28 02:30N 43°46' E 008°24'2914.5
2017-Apr-28 00:28N 43°31' E 007°48'714.7
2017-Apr-27 23:59N 43°27' E 007°40'714.2
2017-Apr-27 23:30N 43°24' E 007°32'714.2
2017-Apr-27 23:00N 43°20' E 007°23'714.2
2017-Apr-27 22:30N 43°17' E 007°15'8515.0
2017-Apr-27 16:51N 43°12' E 005°18'616.2
2017-Apr-27 16:30N 43°17' E 005°16'5 0.4
2017-Apr-27 05:21N 43°21' E 005°20'1 3.5
2017-Apr-27 05:01N 43°21' E 005°18'713.4
2017-Apr-27 04:30N 43°15' E 005°16'1115.4
2017-Apr-27 03:48N 43°07' E 005°26'  
2017-Apr-24 21:47N 43°06' E 009°58'414.0
2017-Apr-24 21:30N 43°09' E 009°56'816.4
2017-Apr-24 21:00N 43°16' E 009°50'917.7
2017-Apr-24 20:30N 43°24' E 009°44'917.8
2017-Apr-24 20:00N 43°31' E 009°38'917.7
2017-Apr-24 19:31N 43°39' E 009°31'917.9
2017-Apr-24 19:00N 43°47' E 009°25'917.9
2017-Apr-24 18:30N 43°54' E 009°19'918.0
2017-Apr-24 18:01N 44°02' E 009°12'918.1
2017-Apr-24 17:31N 44°10' E 009°06'918.1
2017-Apr-24 17:01N 44°18' E 008°59'713.5
2017-Apr-24 16:30N 44°24' E 008°55'1 1.8
2017-Apr-24 15:59N 44°25' E 008°55'0 0.0
2017-Apr-24 15:29N 44°25' E 008°55'0 0.0
2017-Apr-24 14:59N 44°25' E 008°55'0 0.0
2017-Apr-24 14:20N 44°25' E 008°55'0 0.0
2017-Apr-24 13:20N 44°25' E 008°55'0 0.0
2017-Apr-24 12:50N 44°25' E 008°55'0 0.0
2017-Apr-24 12:23N 44°25' E 008°55'0 0.0
2017-Apr-24 11:50N 44°25' E 008°55'0 0.0
2017-Apr-24 11:23N 44°25' E 008°55'0 0.0
2017-Apr-24 10:53N 44°25' E 008°55'0 0.0
2017-Apr-24 10:23N 44°25' E 008°55'0 0.0
2017-Apr-24 09:56N 44°25' E 008°55'0 0.0
2017-Apr-24 09:26N 44°25' E 008°55'0 0.0
2017-Apr-24 08:56N 44°25' E 008°55'0 0.0
2017-Apr-24 08:26N 44°25' E 008°55'0 0.0
2017-Apr-24 07:56N 44°25' E 008°55'0 0.0
2017-Apr-24 07:26N 44°25' E 008°55'0 0.0
2017-Apr-24 06:56N 44°25' E 008°55'0 0.0
2017-Apr-24 06:30N 44°25' E 008°55'1 1.8
2017-Apr-24 06:00N 44°24' E 008°55'4 8.3
2017-Apr-24 05:30N 44°20' E 008°58'816.0
2017-Apr-24 05:00N 44°14' E 008°53'816.8
2017-Apr-24 04:30N 44°07' E 008°46'816.6
2017-Apr-24 04:00N 44°00' E 008°39'816.4
2017-Apr-24 03:30N 43°53' E 008°32'816.5
2017-Apr-24 03:00N 43°47' E 008°25'1617.6
2017-Apr-24 02:04N 43°38' E 008°06'217.7
2017-Apr-24 01:59N 43°37' E 008°04'1617.3
2017-Apr-24 01:05N 43°30' E 007°45'117.1
2017-Apr-24 01:00N 43°29' E 007°44'917.4
2017-Apr-24 00:27N 43°24' E 007°32'817.2
2017-Apr-24 00:00N 43°20' E 007°23'714.8
2017-Apr-23 23:30N 43°17' E 007°14'7213.1
2017-Apr-23 18:02N 43°04' E 005°37'013.8
2017-Apr-23 18:00N 43°04' E 005°37'1514.1
2017-Apr-23 16:54N 43°11' E 005°18'513.4
2017-Apr-23 16:30N 43°16' E 005°16'5 8.9
2017-Apr-23 15:56N 43°21' E 005°20'0 0.0
2017-Apr-23 05:24N 43°21' E 005°20'1 1.5
2017-Apr-23 05:00N 43°21' E 005°19'3 5.0
2017-Apr-23 04:30N 43°19' E 005°17'10416.2
2017-Apr-22 22:06N 42°21' E 007°14'75 3.2
2017-Apr-21 22:22N 43°07' E 008°34'513.4
2017-Apr-21 21:58N 43°13' E 008°36'713.4
2017-Apr-21 21:28N 43°19' E 008°38'613.4
2017-Apr-21 21:00N 43°25' E 008°40'713.3
2017-Apr-21 20:30N 43°32' E 008°42'713.3
2017-Apr-21 20:01N 43°38' E 008°44'713.2
2017-Apr-21 19:30N 43°45' E 008°46'713.4
2017-Apr-21 19:00N 43°51' E 008°49'713.2
2017-Apr-21 18:30N 43°57' E 008°50'713.1
2017-Apr-21 18:00N 44°04' E 008°52'713.1
2017-Apr-21 17:30N 44°10' E 008°54'713.1
2017-Apr-21 17:00N 44°17' E 008°56'612.8
2017-Apr-21 16:30N 44°23' E 008°57'2 3.6
2017-Apr-21 15:57N 44°25' E 008°55'0 0.0
2017-Apr-21 15:30N 44°25' E 008°55'0 0.0
2017-Apr-21 15:00N 44°25' E 008°55'0 0.0
2017-Apr-21 14:30N 44°25' E 008°55'0 0.0
2017-Apr-21 13:30N 44°25' E 008°55'0 0.0
2017-Apr-21 13:00N 44°25' E 008°55'0 0.0
2017-Apr-21 12:30N 44°25' E 008°55'0 0.0
2017-Apr-21 12:00N 44°25' E 008°55'0 0.0
2017-Apr-21 11:30N 44°25' E 008°55'0 0.0
2017-Apr-21 11:00N 44°25' E 008°55'0 0.0
2017-Apr-21 10:30N 44°25' E 008°55'0 0.0
2017-Apr-21 10:00N 44°25' E 008°55'0 0.0
2017-Apr-21 09:30N 44°25' E 008°55'0 0.0
2017-Apr-21 09:00N 44°25' E 008°55'0 0.0
2017-Apr-21 08:21N 44°25' E 008°55'0 0.0
2017-Apr-21 07:51N 44°25' E 008°55'0 0.0
2017-Apr-21 07:21N 44°25' E 008°55'0 0.0
2017-Apr-21 06:54N 44°25' E 008°55'0 0.8
2017-Apr-21 06:31N 44°24' E 008°55'2 3.7
2017-Apr-21 06:01N 44°23' E 008°57'816.2
2017-Apr-21 05:31N 44°15' E 008°54'1020.1
2017-Apr-21 05:01N 44°07' E 008°46'1019.7
2017-Apr-21 04:30N 43°59' E 008°38'1019.5
2017-Apr-21 04:01N 43°51' E 008°30'1019.6
2017-Apr-21 03:30N 43°44' E 008°20'2919.8
2017-Apr-21 02:01N 43°29' E 007°45'319.7
2017-Apr-21 01:53N 43°28' E 007°42'819.7
2017-Apr-21 01:30N 43°24' E 007°33'1019.7
2017-Apr-21 01:00N 43°20' E 007°21'9018.0
2017-Apr-20 20:01N 43°12' E 005°18'020.8
2017-Apr-20 20:00N 43°12' E 005°18'917.6
2017-Apr-20 19:30N 43°20' E 005°18'1 0.1
2017-Apr-20 10:01N 43°21' E 005°20'0 2.0
2017-Apr-20 09:56N 43°21' E 005°19'2 5.5
2017-Apr-20 09:30N 43°19' E 005°17'917.9
2017-Apr-20 09:01N 43°11' E 005°19'1121.5
2017-Apr-20 08:31N 43°04' E 005°31'15820.8
2017-Apr-20 00:55N 43°06' E 009°07'921.4
2017-Apr-20 00:30N 43°07' E 009°19'1020.6
2017-Apr-20 00:00N 43°04' E 009°33'1121.0
2017-Apr-19 23:27N 42°55' E 009°42'  
Track history (hours):
 
Tides and Currents Weather Stations Pressure Air Temp Water Temp Dewpoint Dewpoint Depression Visibility Wind Speed Wind Dir Waves Ship Positions

MSC Magnifica

Last reported at 2017-Apr-28 22:35 UTC. Time now 2017-Apr-29 13:24 UTC.
Position N 43°05' E 008°33'.

Length 293 m; draft 7.8 m.

Type: Ship. MMSI: 352594000.

Date/timePositionNaut miles runAvg speedWind from/ knotsBaromVisibWave heightAir tempDewpointWater temp
2017-Apr-28 22:35N 43°05' E 008°33'112.8
2017-Apr-28 22:30N 43°06' E 008°34'812.8
2017-Apr-28 21:52N 43°13' E 008°36'512.9
2017-Apr-28 21:27N 43°18' E 008°38'813.0
2017-Apr-28 20:52N 43°26' E 008°40'513.1
2017-Apr-28 20:30N 43°31' E 008°42'713.1
2017-Apr-28 20:00N 43°37' E 008°44'713.0
2017-Apr-28 19:30N 43°43' E 008°46'613.1
2017-Apr-28 19:01N 43°50' E 008°48'613.0
2017-Apr-28 18:30N 43°56' E 008°50'612.8
2017-Apr-28 18:00N 44°02' E 008°52'612.7
2017-Apr-28 17:30N 44°08' E 008°54'612.9
2017-Apr-28 17:00N 44°15' E 008°56'612.6
2017-Apr-28 16:30N 44°21' E 008°57'4 8.0
2017-Apr-28 16:00N 44°25' E 008°55'0 0.2
2017-Apr-28 15:23N 44°25' E 008°55'0 0.0
2017-Apr-28 14:53N 44°25' E 008°55'0 0.0
2017-Apr-28 13:53N 44°25' E 008°55'0 0.0
2017-Apr-28 13:23N 44°25' E 008°55'0 0.0
2017-Apr-28 12:56N 44°25' E 008°55'0 0.0
2017-Apr-28 12:26N 44°25' E 008°55'0 0.0
2017-Apr-28 11:56N 44°25' E 008°55'0 0.0
2017-Apr-28 11:23N 44°25' E 008°55'0 0.0
2017-Apr-28 10:56N 44°25' E 008°55'0 0.0
2017-Apr-28 10:29N 44°25' E 008°55'0 0.0
2017-Apr-28 09:59N 44°25' E 008°55'0 0.0
2017-Apr-28 09:29N 44°25' E 008°55'0 0.0
2017-Apr-28 08:59N 44°25' E 008°55'0 0.0
2017-Apr-28 08:29N 44°25' E 008°55'0 0.0
2017-Apr-28 07:59N 44°25' E 008°55'0 0.0
2017-Apr-28 07:29N 44°25' E 008°55'0 0.0
2017-Apr-28 06:59N 44°25' E 008°55'0 0.0
2017-Apr-28 06:29N 44°25' E 008°55'1 1.4
2017-Apr-28 06:00N 44°24' E 008°55'3 6.4
2017-Apr-28 05:30N 44°22' E 008°58'816.1
2017-Apr-28 05:00N 44°14' E 008°53'714.4
2017-Apr-28 04:30N 44°08' E 008°47'714.0
2017-Apr-28 04:01N 44°03' E 008°42'714.3
2017-Apr-28 03:31N 43°57' E 008°36'714.4
2017-Apr-28 03:00N 43°51' E 008°30'714.2
2017-Apr-28 02:30N 43°46' E 008°24'2914.5
2017-Apr-28 00:28N 43°31' E 007°48'714.7
2017-Apr-27 23:59N 43°27' E 007°40'714.2
2017-Apr-27 23:30N 43°24' E 007°32'714.2
2017-Apr-27 23:00N 43°20' E 007°23'714.2
2017-Apr-27 22:30N 43°17' E 007°15'8515.0
2017-Apr-27 16:51N 43°12' E 005°18'616.2
2017-Apr-27 16:30N 43°17' E 005°16'5 0.4
2017-Apr-27 05:21N 43°21' E 005°20'1 3.5
2017-Apr-27 05:01N 43°21' E 005°18'713.4
2017-Apr-27 04:30N 43°15' E 005°16'1115.4
2017-Apr-27 03:48N 43°07' E 005°26'  
2017-Apr-24 21:47N 43°06' E 009°58'414.0
2017-Apr-24 21:30N 43°09' E 009°56'816.4
2017-Apr-24 21:00N 43°16' E 009°50'917.7
2017-Apr-24 20:30N 43°24' E 009°44'917.8
2017-Apr-24 20:00N 43°31' E 009°38'917.7
2017-Apr-24 19:31N 43°39' E 009°31'917.9
2017-Apr-24 19:00N 43°47' E 009°25'917.9
2017-Apr-24 18:30N 43°54' E 009°19'918.0
2017-Apr-24 18:01N 44°02' E 009°12'918.1
2017-Apr-24 17:31N 44°10' E 009°06'918.1
2017-Apr-24 17:01N 44°18' E 008°59'713.5
2017-Apr-24 16:30N 44°24' E 008°55'1 1.8
2017-Apr-24 15:59N 44°25' E 008°55'0 0.0
2017-Apr-24 15:29N 44°25' E 008°55'0 0.0
2017-Apr-24 14:59N 44°25' E 008°55'0 0.0
2017-Apr-24 14:20N 44°25' E 008°55'0 0.0
2017-Apr-24 13:20N 44°25' E 008°55'0 0.0
2017-Apr-24 12:50N 44°25' E 008°55'0 0.0
2017-Apr-24 12:23N 44°25' E 008°55'0 0.0
2017-Apr-24 11:50N 44°25' E 008°55'0 0.0
2017-Apr-24 11:23N 44°25' E 008°55'0 0.0
2017-Apr-24 10:53N 44°25' E 008°55'0 0.0
2017-Apr-24 10:23N 44°25' E 008°55'0 0.0
2017-Apr-24 09:56N 44°25' E 008°55'0 0.0
2017-Apr-24 09:26N 44°25' E 008°55'0 0.0
2017-Apr-24 08:56N 44°25' E 008°55'0 0.0
2017-Apr-24 08:26N 44°25' E 008°55'0 0.0
2017-Apr-24 07:56N 44°25' E 008°55'0 0.0
2017-Apr-24 07:26N 44°25' E 008°55'0 0.0
2017-Apr-24 06:56N 44°25' E 008°55'0 0.0
2017-Apr-24 06:30N 44°25' E 008°55'1 1.8
2017-Apr-24 06:00N 44°24' E 008°55'4 8.3
2017-Apr-24 05:30N 44°20' E 008°58'816.0
2017-Apr-24 05:00N 44°14' E 008°53'816.8
2017-Apr-24 04:30N 44°07' E 008°46'816.6
2017-Apr-24 04:00N 44°00' E 008°39'816.4
2017-Apr-24 03:30N 43°53' E 008°32'816.5
2017-Apr-24 03:00N 43°47' E 008°25'1617.6
2017-Apr-24 02:04N 43°38' E 008°06'217.7
2017-Apr-24 01:59N 43°37' E 008°04'1617.3
2017-Apr-24 01:05N 43°30' E 007°45'117.1
2017-Apr-24 01:00N 43°29' E 007°44'917.4
2017-Apr-24 00:27N 43°24' E 007°32'817.2
2017-Apr-24 00:00N 43°20' E 007°23'714.8
2017-Apr-23 23:30N 43°17' E 007°14'7213.1
2017-Apr-23 18:02N 43°04' E 005°37'013.8
2017-Apr-23 18:00N 43°04' E 005°37'1514.1
2017-Apr-23 16:54N 43°11' E 005°18'513.4
2017-Apr-23 16:30N 43°16' E 005°16'5 8.9
2017-Apr-23 15:56N 43°21' E 005°20'0 0.0
2017-Apr-23 05:24N 43°21' E 005°20'1 1.5
2017-Apr-23 05:00N 43°21' E 005°19'3 5.0
2017-Apr-23 04:30N 43°19' E 005°17'10416.2
2017-Apr-22 22:06N 42°21' E 007°14'75 3.2
2017-Apr-21 22:22N 43°07' E 008°34'513.4
2017-Apr-21 21:58N 43°13' E 008°36'713.4
2017-Apr-21 21:28N 43°19' E 008°38'613.4
2017-Apr-21 21:00N 43°25' E 008°40'713.3
2017-Apr-21 20:30N 43°32' E 008°42'713.3
2017-Apr-21 20:01N 43°38' E 008°44'713.2
2017-Apr-21 19:30N 43°45' E 008°46'713.4
2017-Apr-21 19:00N 43°51' E 008°49'713.2
2017-Apr-21 18:30N 43°57' E 008°50'713.1
2017-Apr-21 18:00N 44°04' E 008°52'713.1
2017-Apr-21 17:30N 44°10' E 008°54'713.1
2017-Apr-21 17:00N 44°17' E 008°56'612.8
2017-Apr-21 16:30N 44°23' E 008°57'2 3.6
2017-Apr-21 15:57N 44°25' E 008°55'0 0.0
2017-Apr-21 15:30N 44°25' E 008°55'0 0.0
2017-Apr-21 15:00N 44°25' E 008°55'0 0.0
2017-Apr-21 14:30N 44°25' E 008°55'0 0.0
2017-Apr-21 13:30N 44°25' E 008°55'0 0.0
2017-Apr-21 13:00N 44°25' E 008°55'0 0.0
2017-Apr-21 12:30N 44°25' E 008°55'0 0.0
2017-Apr-21 12:00N 44°25' E 008°55'0 0.0
2017-Apr-21 11:30N 44°25' E 008°55'0 0.0
2017-Apr-21 11:00N 44°25' E 008°55'0 0.0
2017-Apr-21 10:30N 44°25' E 008°55'0 0.0
2017-Apr-21 10:00N 44°25' E 008°55'0 0.0
2017-Apr-21 09:30N 44°25' E 008°55'0 0.0
2017-Apr-21 09:00N 44°25' E 008°55'0 0.0
2017-Apr-21 08:21N 44°25' E 008°55'0 0.0
2017-Apr-21 07:51N 44°25' E 008°55'0 0.0
2017-Apr-21 07:21N 44°25' E 008°55'0 0.0
2017-Apr-21 06:54N 44°25' E 008°55'0 0.8
2017-Apr-21 06:31N 44°24' E 008°55'2 3.7
2017-Apr-21 06:01N 44°23' E 008°57'816.2
2017-Apr-21 05:31N 44°15' E 008°54'1020.1
2017-Apr-21 05:01N 44°07' E 008°46'1019.7
2017-Apr-21 04:30N 43°59' E 008°38'1019.5
2017-Apr-21 04:01N 43°51' E 008°30'1019.6
2017-Apr-21 03:30N 43°44' E 008°20'2919.8
2017-Apr-21 02:01N 43°29' E 007°45'319.7
2017-Apr-21 01:53N 43°28' E 007°42'819.7
2017-Apr-21 01:30N 43°24' E 007°33'1019.7
2017-Apr-21 01:00N 43°20' E 007°21'9018.0
2017-Apr-20 20:01N 43°12' E 005°18'020.8
2017-Apr-20 20:00N 43°12' E 005°18'917.6
2017-Apr-20 19:30N 43°20' E 005°18'1 0.1
2017-Apr-20 10:01N 43°21' E 005°20'0 2.0
2017-Apr-20 09:56N 43°21' E 005°19'2 5.5
2017-Apr-20 09:30N 43°19' E 005°17'917.9
2017-Apr-20 09:01N 43°11' E 005°19'1121.5
2017-Apr-20 08:31N 43°04' E 005°31'15820.8
2017-Apr-20 00:55N 43°06' E 009°07'921.4
2017-Apr-20 00:30N 43°07' E 009°19'1020.6
2017-Apr-20 00:00N 43°04' E 009°33'1121.0
2017-Apr-19 23:27N 42°55' E 009°42'  

Dump ship's entire track history